sensor_id;sensor_type;location;lat;lon;timestamp;P1;durP1;ratioP1;P2;durP2;ratioP2
27313;SDS011;14800;48.174;9.798;2022-09-30T00:01:18;15.63;;;5.25;;
27313;SDS011;14800;48.174;9.798;2022-09-30T00:03:43;37.80;;;5.90;;
27313;SDS011;14800;48.174;9.798;2022-09-30T00:06:09;9.00;;;5.38;;
27313;SDS011;14800;48.174;9.798;2022-09-30T00:08:36;26.17;;;5.00;;
27313;SDS011;14800;48.174;9.798;2022-09-30T00:11:06;38.03;;;5.30;;
27313;SDS011;14800;48.174;9.798;2022-09-30T00:13:34;103.25;;;7.00;;
27313;SDS011;14800;48.174;9.798;2022-09-30T00:16:01;110.22;;;9.00;;
27313;SDS011;14800;48.174;9.798;2022-09-30T00:18:28;98.57;;;7.10;;
27313;SDS011;14800;48.174;9.798;2022-09-30T00:20:54;85.10;;;5.97;;
27313;SDS011;14800;48.174;9.798;2022-09-30T00:23:20;111.85;;;6.15;;
27313;SDS011;14800;48.174;9.798;2022-09-30T00:25:46;102.97;;;6.07;;
27313;SDS011;14800;48.174;9.798;2022-09-30T00:28:12;84.18;;;5.63;;
27313;SDS011;14800;48.174;9.798;2022-09-30T00:30:39;101.55;;;5.63;;
27313;SDS011;14800;48.174;9.798;2022-09-30T00:33:05;112.70;;;6.30;;
27313;SDS011;14800;48.174;9.798;2022-09-30T00:35:31;11.85;;;5.13;;
27313;SDS011;14800;48.174;9.798;2022-09-30T00:37:56;24.00;;;5.18;;
27313;SDS011;14800;48.174;9.798;2022-09-30T00:40:23;96.88;;;7.63;;
27313;SDS011;14800;48.174;9.798;2022-09-30T00:42:49;94.95;;;7.20;;
27313;SDS011;14800;48.174;9.798;2022-09-30T00:45:15;96.88;;;6.53;;
27313;SDS011;14800;48.174;9.798;2022-09-30T00:55:29;58.88;;;6.22;;
27313;SDS011;14800;48.174;9.798;2022-09-30T00:58:15;75.40;;;6.43;;
27313;SDS011;14800;48.174;9.798;2022-09-30T01:00:45;32.63;;;5.78;;
27313;SDS011;14800;48.174;9.798;2022-09-30T01:03:12;70.80;;;6.60;;
27313;SDS011;14800;48.174;9.798;2022-09-30T01:05:38;93.50;;;7.32;;
27313;SDS011;14800;48.174;9.798;2022-09-30T01:08:04;127.63;;;7.55;;
27313;SDS011;14800;48.174;9.798;2022-09-30T01:10:32;25.75;;;5.38;;
27313;SDS011;14800;48.174;9.798;2022-09-30T01:12:58;11.15;;;5.30;;
27313;SDS011;14800;48.174;9.798;2022-09-30T01:15:34;49.38;;;6.00;;
27313;SDS011;14800;48.174;9.798;2022-09-30T01:24:11;19.52;;;5.00;;
27313;SDS011;14800;48.174;9.798;2022-09-30T01:29:40;6.53;;;4.97;;
27313;SDS011;14800;48.174;9.798;2022-09-30T01:32:27;10.57;;;4.95;;
27313;SDS011;14800;48.174;9.798;2022-09-30T01:35:32;22.83;;;5.85;;
27313;SDS011;14800;48.174;9.798;2022-09-30T01:43:26;8.30;;;5.10;;
27313;SDS011;14800;48.174;9.798;2022-09-30T01:46:29;6.40;;;5.50;;
27313;SDS011;14800;48.174;9.798;2022-09-30T01:49:05;72.15;;;6.63;;
27313;SDS011;14800;48.174;9.798;2022-09-30T01:51:36;9.07;;;5.43;;
27313;SDS011;14800;48.174;9.798;2022-09-30T01:54:09;34.70;;;5.95;;
27313;SDS011;14800;48.174;9.798;2022-09-30T01:56:43;88.10;;;6.63;;
27313;SDS011;14800;48.174;9.798;2022-09-30T01:59:25;50.45;;;5.72;;
27313;SDS011;14800;48.174;9.798;2022-09-30T02:02:07;40.42;;;6.18;;
27313;SDS011;14800;48.174;9.798;2022-09-30T02:04:44;6.75;;;5.07;;
27313;SDS011;14800;48.174;9.798;2022-09-30T02:07:27;16.20;;;5.85;;
27313;SDS011;14800;48.174;9.798;2022-09-30T02:10:14;20.00;;;5.85;;
27313;SDS011;14800;48.174;9.798;2022-09-30T02:12:46;33.05;;;5.93;;
27313;SDS011;14800;48.174;9.798;2022-09-30T02:15:21;11.18;;;5.70;;
27313;SDS011;14800;48.174;9.798;2022-09-30T02:17:55;54.80;;;6.22;;
27313;SDS011;14800;48.174;9.798;2022-09-30T02:20:28;18.27;;;6.15;;
27313;SDS011;14800;48.174;9.798;2022-09-30T02:23:01;35.05;;;6.05;;
27313;SDS011;14800;48.174;9.798;2022-09-30T02:25:40;19.55;;;6.55;;
27313;SDS011;14800;48.174;9.798;2022-09-30T02:28:11;20.77;;;6.68;;
27313;SDS011;14800;48.174;9.798;2022-09-30T02:30:44;39.40;;;6.68;;
27313;SDS011;14800;48.174;9.798;2022-09-30T02:33:18;42.45;;;7.00;;
27313;SDS011;14800;48.174;9.798;2022-09-30T02:35:57;23.02;;;7.40;;
27313;SDS011;14800;48.174;9.798;2022-09-30T02:38:31;15.38;;;6.93;;
27313;SDS011;14800;48.174;9.798;2022-09-30T02:41:07;26.88;;;7.28;;
27313;SDS011;14800;48.174;9.798;2022-09-30T02:43:36;23.67;;;6.90;;
27313;SDS011;14800;48.174;9.798;2022-09-30T02:48:48;21.48;;;7.55;;
27313;SDS011;14800;48.174;9.798;2022-09-30T02:51:18;8.50;;;7.07;;
27313;SDS011;14800;48.174;9.798;2022-09-30T02:59:02;18.58;;;8.10;;
27313;SDS011;14800;48.174;9.798;2022-09-30T03:01:28;21.42;;;8.05;;
27313;SDS011;14800;48.174;9.798;2022-09-30T03:03:58;28.75;;;8.85;;
27313;SDS011;14800;48.174;9.798;2022-09-30T03:06:28;17.60;;;8.82;;
27313;SDS011;14800;48.174;9.798;2022-09-30T03:08:54;18.05;;;8.30;;
27313;SDS011;14800;48.174;9.798;2022-09-30T03:11:21;19.55;;;8.68;;
27313;SDS011;14800;48.174;9.798;2022-09-30T03:27:51;23.05;;;6.20;;
27313;SDS011;14800;48.174;9.798;2022-09-30T03:30:28;14.60;;;6.07;;
27313;SDS011;14800;48.174;9.798;2022-09-30T03:35:50;18.05;;;6.28;;
27313;SDS011;14800;48.174;9.798;2022-09-30T03:46:46;195.32;;;9.68;;
27313;SDS011;14800;48.174;9.798;2022-09-30T03:49:20;50.28;;;6.80;;
27313;SDS011;14800;48.174;9.798;2022-09-30T03:51:50;39.08;;;6.80;;
27313;SDS011;14800;48.174;9.798;2022-09-30T03:54:17;7.15;;;6.38;;
27313;SDS011;14800;48.174;9.798;2022-09-30T03:56:42;53.25;;;7.25;;
27313;SDS011;14800;48.174;9.798;2022-09-30T03:59:11;63.40;;;7.32;;
27313;SDS011;14800;48.174;9.798;2022-09-30T04:01:46;64.68;;;7.63;;
27313;SDS011;14800;48.174;9.798;2022-09-30T04:04:12;34.42;;;6.35;;
27313;SDS011;14800;48.174;9.798;2022-09-30T04:06:38;27.98;;;6.45;;
27313;SDS011;14800;48.174;9.798;2022-09-30T04:09:03;29.33;;;5.50;;
27313;SDS011;14800;48.174;9.798;2022-09-30T04:11:29;37.60;;;6.28;;
27313;SDS011;14800;48.174;9.798;2022-09-30T04:13:54;11.07;;;10.02;;
27313;SDS011;14800;48.174;9.798;2022-09-30T04:16:20;24.92;;;5.80;;
27313;SDS011;14800;48.174;9.798;2022-09-30T04:18:46;45.83;;;5.47;;
27313;SDS011;14800;48.174;9.798;2022-09-30T04:21:12;26.80;;;5.55;;
27313;SDS011;14800;48.174;9.798;2022-09-30T04:23:39;22.15;;;5.60;;
27313;SDS011;14800;48.174;9.798;2022-09-30T04:26:06;33.33;;;5.45;;
27313;SDS011;14800;48.174;9.798;2022-09-30T04:28:34;17.83;;;6.00;;
27313;SDS011;14800;48.174;9.798;2022-09-30T04:31:01;144.75;;;8.02;;
27313;SDS011;14800;48.174;9.798;2022-09-30T04:33:27;108.97;;;7.28;;
27313;SDS011;14800;48.174;9.798;2022-09-30T04:35:54;12.55;;;5.93;;
27313;SDS011;14800;48.174;9.798;2022-09-30T04:38:20;89.70;;;7.72;;
27313;SDS011;14800;48.174;9.798;2022-09-30T04:40:48;16.55;;;5.28;;
27313;SDS011;14800;48.174;9.798;2022-09-30T04:43:15;71.07;;;6.53;;
27313;SDS011;14800;48.174;9.798;2022-09-30T04:45:43;136.20;;;6.75;;
27313;SDS011;14800;48.174;9.798;2022-09-30T04:48:10;96.47;;;6.68;;
27313;SDS011;14800;48.174;9.798;2022-09-30T04:50:36;169.57;;;7.40;;
27313;SDS011;14800;48.174;9.798;2022-09-30T04:53:02;188.57;;;8.10;;
27313;SDS011;14800;48.174;9.798;2022-09-30T04:55:30;27.27;;;5.72;;
27313;SDS011;14800;48.174;9.798;2022-09-30T04:57:56;35.03;;;6.97;;
27313;SDS011;14800;48.174;9.798;2022-09-30T05:00:22;62.83;;;15.73;;
27313;SDS011;14800;48.174;9.798;2022-09-30T05:02:49;197.38;;;12.13;;
27313;SDS011;14800;48.174;9.798;2022-09-30T05:05:15;46.45;;;8.95;;
27313;SDS011;14800;48.174;9.798;2022-09-30T05:07:41;39.00;;;6.80;;
27313;SDS011;14800;48.174;9.798;2022-09-30T05:10:07;50.05;;;7.22;;
27313;SDS011;14800;48.174;9.798;2022-09-30T05:12:35;37.00;;;6.25;;
27313;SDS011;14800;48.174;9.798;2022-09-30T05:15:01;34.65;;;7.32;;
27313;SDS011;14800;48.174;9.798;2022-09-30T05:17:28;66.70;;;7.00;;
27313;SDS011;14800;48.174;9.798;2022-09-30T05:19:55;14.15;;;6.43;;
27313;SDS011;14800;48.174;9.798;2022-09-30T05:22:20;48.58;;;6.70;;
27313;SDS011;14800;48.174;9.798;2022-09-30T05:24:48;26.00;;;5.75;;
27313;SDS011;14800;48.174;9.798;2022-09-30T05:27:14;33.60;;;6.63;;
27313;SDS011;14800;48.174;9.798;2022-09-30T05:29:41;28.00;;;6.03;;
27313;SDS011;14800;48.174;9.798;2022-09-30T05:32:07;15.45;;;5.93;;
27313;SDS011;14800;48.174;9.798;2022-09-30T05:34:33;19.38;;;5.63;;
27313;SDS011;14800;48.174;9.798;2022-09-30T05:36:59;98.15;;;6.50;;
27313;SDS011;14800;48.174;9.798;2022-09-30T05:39:24;42.92;;;5.40;;
27313;SDS011;14800;48.174;9.798;2022-09-30T05:41:50;28.13;;;5.57;;
27313;SDS011;14800;48.174;9.798;2022-09-30T05:44:15;60.17;;;6.55;;
27313;SDS011;14800;48.174;9.798;2022-09-30T05:46:41;54.10;;;6.95;;
27313;SDS011;14800;48.174;9.798;2022-09-30T05:49:07;17.45;;;6.05;;
27313;SDS011;14800;48.174;9.798;2022-09-30T05:51:33;21.77;;;6.25;;
27313;SDS011;14800;48.174;9.798;2022-09-30T05:53:59;22.80;;;6.65;;
27313;SDS011;14800;48.174;9.798;2022-09-30T05:56:24;35.42;;;6.93;;
27313;SDS011;14800;48.174;9.798;2022-09-30T05:58:50;7.53;;;6.00;;
27313;SDS011;14800;48.174;9.798;2022-09-30T06:01:15;21.95;;;6.57;;
27313;SDS011;14800;48.174;9.798;2022-09-30T06:03:42;97.22;;;7.72;;
27313;SDS011;14800;48.174;9.798;2022-09-30T06:06:08;38.35;;;6.88;;
27313;SDS011;14800;48.174;9.798;2022-09-30T06:08:34;29.95;;;8.50;;
27313;SDS011;14800;48.174;9.798;2022-09-30T06:11:00;18.40;;;7.35;;
27313;SDS011;14800;48.174;9.798;2022-09-30T06:13:26;16.00;;;7.25;;
27313;SDS011;14800;48.174;9.798;2022-09-30T06:15:56;18.27;;;6.20;;
27313;SDS011;14800;48.174;9.798;2022-09-30T06:18:23;32.55;;;6.60;;
27313;SDS011;14800;48.174;9.798;2022-09-30T06:20:50;43.15;;;7.03;;
27313;SDS011;14800;48.174;9.798;2022-09-30T06:23:16;12.07;;;6.13;;
27313;SDS011;14800;48.174;9.798;2022-09-30T06:25:41;11.65;;;5.88;;
27313;SDS011;14800;48.174;9.798;2022-09-30T06:28:08;18.15;;;5.97;;
27313;SDS011;14800;48.174;9.798;2022-09-30T06:30:34;43.15;;;6.45;;
27313;SDS011;14800;48.174;9.798;2022-09-30T06:32:59;25.50;;;5.85;;
27313;SDS011;14800;48.174;9.798;2022-09-30T06:35:25;31.95;;;6.80;;
27313;SDS011;14800;48.174;9.798;2022-09-30T06:37:52;20.30;;;6.22;;
27313;SDS011;14800;48.174;9.798;2022-09-30T06:40:18;32.05;;;6.80;;
27313;SDS011;14800;48.174;9.798;2022-09-30T06:42:47;29.63;;;6.63;;
27313;SDS011;14800;48.174;9.798;2022-09-30T06:45:14;26.45;;;5.75;;
27313;SDS011;14800;48.174;9.798;2022-09-30T06:47:40;18.25;;;5.70;;
27313;SDS011;14800;48.174;9.798;2022-09-30T06:50:06;24.30;;;6.78;;
27313;SDS011;14800;48.174;9.798;2022-09-30T06:52:32;11.73;;;5.72;;
27313;SDS011;14800;48.174;9.798;2022-09-30T06:54:57;20.83;;;6.22;;
27313;SDS011;14800;48.174;9.798;2022-09-30T06:57:24;9.60;;;5.70;;
27313;SDS011;14800;48.174;9.798;2022-09-30T06:59:51;67.57;;;6.75;;
27313;SDS011;14800;48.174;9.798;2022-09-30T07:02:18;9.05;;;5.72;;
27313;SDS011;14800;48.174;9.798;2022-09-30T07:04:44;44.22;;;6.53;;
27313;SDS011;14800;48.174;9.798;2022-09-30T07:07:10;34.28;;;5.65;;
27313;SDS011;14800;48.174;9.798;2022-09-30T07:09:36;24.55;;;5.75;;
27313;SDS011;14800;48.174;9.798;2022-09-30T07:12:02;24.23;;;5.10;;
27313;SDS011;14800;48.174;9.798;2022-09-30T07:14:28;22.75;;;5.30;;
27313;SDS011;14800;48.174;9.798;2022-09-30T07:16:55;25.88;;;6.32;;
27313;SDS011;14800;48.174;9.798;2022-09-30T07:19:21;13.52;;;5.68;;
27313;SDS011;14800;48.174;9.798;2022-09-30T07:21:50;24.23;;;5.40;;
27313;SDS011;14800;48.174;9.798;2022-09-30T07:24:16;10.40;;;5.43;;
27313;SDS011;14800;48.174;9.798;2022-09-30T07:26:42;10.60;;;5.80;;
27313;SDS011;14800;48.174;9.798;2022-09-30T07:29:11;11.40;;;5.53;;
27313;SDS011;14800;48.174;9.798;2022-09-30T07:31:38;20.10;;;5.60;;
27313;SDS011;14800;48.174;9.798;2022-09-30T07:34:04;30.75;;;5.72;;
27313;SDS011;14800;48.174;9.798;2022-09-30T07:36:32;14.75;;;5.95;;
27313;SDS011;14800;48.174;9.798;2022-09-30T07:39:00;33.40;;;5.13;;
27313;SDS011;14800;48.174;9.798;2022-09-30T07:41:30;14.02;;;5.40;;
27313;SDS011;14800;48.174;9.798;2022-09-30T07:43:56;30.38;;;6.15;;
27313;SDS011;14800;48.174;9.798;2022-09-30T07:46:27;19.42;;;5.50;;
27313;SDS011;14800;48.174;9.798;2022-09-30T07:48:55;10.60;;;5.65;;
27313;SDS011;14800;48.174;9.798;2022-09-30T07:51:28;8.65;;;5.30;;
27313;SDS011;14800;48.174;9.798;2022-09-30T07:53:57;9.18;;;5.45;;
27313;SDS011;14800;48.174;9.798;2022-09-30T07:56:25;28.80;;;6.13;;
27313;SDS011;14800;48.174;9.798;2022-09-30T07:58:52;9.02;;;5.32;;
27313;SDS011;14800;48.174;9.798;2022-09-30T08:01:19;6.35;;;5.63;;
27313;SDS011;14800;48.174;9.798;2022-09-30T08:03:45;9.35;;;5.57;;
27313;SDS011;14800;48.174;9.798;2022-09-30T08:06:12;16.88;;;5.50;;
27313;SDS011;14800;48.174;9.798;2022-09-30T08:08:39;6.72;;;5.50;;
27313;SDS011;14800;48.174;9.798;2022-09-30T08:11:05;9.60;;;5.47;;
27313;SDS011;14800;48.174;9.798;2022-09-30T08:13:31;6.40;;;5.53;;
27313;SDS011;14800;48.174;9.798;2022-09-30T08:15:57;7.00;;;5.88;;
27313;SDS011;14800;48.174;9.798;2022-09-30T08:18:23;9.82;;;6.20;;
27313;SDS011;14800;48.174;9.798;2022-09-30T08:20:49;10.10;;;6.15;;
27313;SDS011;14800;48.174;9.798;2022-09-30T08:23:16;8.25;;;6.50;;
27313;SDS011;14800;48.174;9.798;2022-09-30T08:25:41;8.52;;;6.05;;
27313;SDS011;14800;48.174;9.798;2022-09-30T08:28:07;15.80;;;6.45;;
27313;SDS011;14800;48.174;9.798;2022-09-30T08:30:34;12.55;;;6.57;;
27313;SDS011;14800;48.174;9.798;2022-09-30T08:33:00;10.80;;;7.07;;
27313;SDS011;14800;48.174;9.798;2022-09-30T08:35:25;8.23;;;6.65;;
27313;SDS011;14800;48.174;9.798;2022-09-30T08:37:51;8.07;;;6.40;;
27313;SDS011;14800;48.174;9.798;2022-09-30T08:40:18;10.43;;;6.50;;
27313;SDS011;14800;48.174;9.798;2022-09-30T08:43:01;8.32;;;6.28;;
27313;SDS011;14800;48.174;9.798;2022-09-30T08:53:51;6.88;;;5.55;;
27313;SDS011;14800;48.174;9.798;2022-09-30T08:56:20;7.55;;;6.15;;
27313;SDS011;14800;48.174;9.798;2022-09-30T08:58:50;7.30;;;5.97;;
27313;SDS011;14800;48.174;9.798;2022-09-30T09:01:41;13.65;;;6.65;;
27313;SDS011;14800;48.174;9.798;2022-09-30T09:04:11;7.45;;;6.28;;
27313;SDS011;14800;48.174;9.798;2022-09-30T09:06:45;7.85;;;6.43;;
27313;SDS011;14800;48.174;9.798;2022-09-30T09:14:37;18.40;;;7.28;;
27313;SDS011;14800;48.174;9.798;2022-09-30T09:17:25;18.73;;;6.72;;
27313;SDS011;14800;48.174;9.798;2022-09-30T09:20:15;23.50;;;7.60;;
27313;SDS011;14800;48.174;9.798;2022-09-30T09:22:44;16.75;;;7.30;;
27313;SDS011;14800;48.174;9.798;2022-09-30T09:25:14;8.20;;;6.88;;
27313;SDS011;14800;48.174;9.798;2022-09-30T09:30:21;16.98;;;7.78;;
27313;SDS011;14800;48.174;9.798;2022-09-30T09:32:50;10.68;;;7.45;;
27313;SDS011;14800;48.174;9.798;2022-09-30T09:46:50;11.63;;;8.23;;
27313;SDS011;14800;48.174;9.798;2022-09-30T09:49:29;11.43;;;7.53;;
27313;SDS011;14800;48.174;9.798;2022-09-30T09:54:41;11.55;;;8.05;;
27313;SDS011;14800;48.174;9.798;2022-09-30T09:57:14;11.15;;;7.63;;
27313;SDS011;14800;48.174;9.798;2022-09-30T09:59:54;11.80;;;7.90;;
27313;SDS011;14800;48.174;9.798;2022-09-30T10:02:28;13.77;;;8.80;;
27313;SDS011;14800;48.174;9.798;2022-09-30T10:04:55;11.38;;;8.40;;
27313;SDS011;14800;48.174;9.798;2022-09-30T10:07:29;13.77;;;8.55;;
27313;SDS011;14800;48.174;9.798;2022-09-30T10:10:18;13.73;;;8.55;;
27313;SDS011;14800;48.174;9.798;2022-09-30T10:12:44;11.43;;;8.02;;
27313;SDS011;14800;48.174;9.798;2022-09-30T10:17:53;11.18;;;8.02;;
27313;SDS011;14800;48.174;9.798;2022-09-30T10:20:31;11.68;;;8.23;;
27313;SDS011;14800;48.174;9.798;2022-09-30T10:23:15;11.15;;;8.20;;
27313;SDS011;14800;48.174;9.798;2022-09-30T10:25:55;10.75;;;7.72;;
27313;SDS011;14800;48.174;9.798;2022-09-30T10:28:24;11.52;;;8.75;;
27313;SDS011;14800;48.174;9.798;2022-09-30T10:30:54;13.32;;;8.85;;
27313;SDS011;14800;48.174;9.798;2022-09-30T10:33:39;13.45;;;8.70;;
27313;SDS011;14800;48.174;9.798;2022-09-30T10:36:15;12.35;;;8.80;;
27313;SDS011;14800;48.174;9.798;2022-09-30T10:38:59;12.10;;;8.00;;
27313;SDS011;14800;48.174;9.798;2022-09-30T10:41:28;11.07;;;7.72;;
27313;SDS011;14800;48.174;9.798;2022-09-30T10:43:56;11.00;;;8.02;;
27313;SDS011;14800;48.174;9.798;2022-09-30T10:46:34;12.95;;;8.43;;
27313;SDS011;14800;48.174;9.798;2022-09-30T10:51:53;11.60;;;8.13;;
27313;SDS011;14800;48.174;9.798;2022-09-30T10:54:56;10.25;;;7.65;;
27313;SDS011;14800;48.174;9.798;2022-09-30T10:57:23;11.63;;;7.82;;
27313;SDS011;14800;48.174;9.798;2022-09-30T10:59:50;11.10;;;7.93;;
27313;SDS011;14800;48.174;9.798;2022-09-30T11:02:22;12.43;;;8.63;;
27313;SDS011;14800;48.174;9.798;2022-09-30T11:04:58;13.88;;;8.35;;
27313;SDS011;14800;48.174;9.798;2022-09-30T11:07:49;10.93;;;8.30;;
27313;SDS011;14800;48.174;9.798;2022-09-30T11:13:16;10.23;;;7.20;;
27313;SDS011;14800;48.174;9.798;2022-09-30T11:18:28;9.15;;;6.88;;
27313;SDS011;14800;48.174;9.798;2022-09-30T11:20:58;11.05;;;7.15;;
27313;SDS011;14800;48.174;9.798;2022-09-30T11:28:45;8.68;;;7.20;;
27313;SDS011;14800;48.174;9.798;2022-09-30T11:41:54;7.68;;;6.43;;
27313;SDS011;14800;48.174;9.798;2022-09-30T11:44:46;8.50;;;7.60;;
27313;SDS011;14800;48.174;9.798;2022-09-30T11:50:00;7.28;;;6.47;;
27313;SDS011;14800;48.174;9.798;2022-09-30T11:58:06;6.85;;;6.15;;
27313;SDS011;14800;48.174;9.798;2022-09-30T12:00:42;7.13;;;6.43;;
27313;SDS011;14800;48.174;9.798;2022-09-30T12:03:18;6.43;;;5.82;;
27313;SDS011;14800;48.174;9.798;2022-09-30T12:06:00;6.70;;;6.00;;
27313;SDS011;14800;48.174;9.798;2022-09-30T12:08:33;6.55;;;5.95;;
27313;SDS011;14800;48.174;9.798;2022-09-30T12:11:11;6.97;;;6.00;;
27313;SDS011;14800;48.174;9.798;2022-09-30T12:13:42;6.70;;;6.05;;
27313;SDS011;14800;48.174;9.798;2022-09-30T12:16:18;6.37;;;5.77;;
27313;SDS011;14800;48.174;9.798;2022-09-30T12:19:31;6.50;;;5.90;;
27313;SDS011;14800;48.174;9.798;2022-09-30T12:21:57;6.78;;;6.15;;
27313;SDS011;14800;48.174;9.798;2022-09-30T12:24:32;5.75;;;5.25;;
27313;SDS011;14800;48.174;9.798;2022-09-30T12:27:05;5.70;;;5.20;;
27313;SDS011;14800;48.174;9.798;2022-09-30T12:29:41;5.55;;;5.05;;
27313;SDS011;14800;48.174;9.798;2022-09-30T12:46:44;6.20;;;5.60;;
27313;SDS011;14800;48.174;9.798;2022-09-30T12:49:32;7.70;;;5.47;;
27313;SDS011;14800;48.174;9.798;2022-09-30T12:52:03;9.07;;;5.25;;
27313;SDS011;14800;48.174;9.798;2022-09-30T12:54:31;5.97;;;5.38;;
27313;SDS011;14800;48.174;9.798;2022-09-30T12:57:04;5.55;;;5.05;;
27313;SDS011;14800;48.174;9.798;2022-09-30T12:59:33;9.05;;;6.43;;
27313;SDS011;14800;48.174;9.798;2022-09-30T13:02:01;5.95;;;5.35;;
27313;SDS011;14800;48.174;9.798;2022-09-30T13:09:36;4.72;;;4.32;;
27313;SDS011;14800;48.174;9.798;2022-09-30T13:12:24;5.13;;;4.63;;
27313;SDS011;14800;48.174;9.798;2022-09-30T13:15:21;4.60;;;4.20;;
27313;SDS011;14800;48.174;9.798;2022-09-30T13:17:53;5.72;;;4.93;;
27313;SDS011;14800;48.174;9.798;2022-09-30T13:23:22;5.93;;;5.30;;
27313;SDS011;14800;48.174;9.798;2022-09-30T13:26:00;5.65;;;5.05;;
27313;SDS011;14800;48.174;9.798;2022-09-30T13:28:35;5.25;;;4.75;;
27313;SDS011;14800;48.174;9.798;2022-09-30T13:31:18;6.32;;;5.47;;
27313;SDS011;14800;48.174;9.798;2022-09-30T13:36:30;7.03;;;6.32;;
27313;SDS011;14800;48.174;9.798;2022-09-30T13:39:51;7.05;;;6.35;;
27313;SDS011;14800;48.174;9.798;2022-09-30T13:47:32;7.20;;;6.50;;
27313;SDS011;14800;48.174;9.798;2022-09-30T13:52:56;5.97;;;5.28;;
27313;SDS011;14800;48.174;9.798;2022-09-30T13:55:33;6.28;;;5.50;;
27313;SDS011;14800;48.174;9.798;2022-09-30T14:03:36;6.97;;;6.28;;
27313;SDS011;14800;48.174;9.798;2022-09-30T14:06:27;6.65;;;6.00;;
27313;SDS011;14800;48.174;9.798;2022-09-30T14:09:09;6.75;;;6.05;;
27313;SDS011;14800;48.174;9.798;2022-09-30T14:12:02;8.52;;;6.60;;
27313;SDS011;14800;48.174;9.798;2022-09-30T14:15:00;6.88;;;6.18;;
27313;SDS011;14800;48.174;9.798;2022-09-30T14:20:40;6.65;;;5.95;;
27313;SDS011;14800;48.174;9.798;2022-09-30T14:23:18;6.55;;;5.95;;
27313;SDS011;14800;48.174;9.798;2022-09-30T14:25:50;6.22;;;5.63;;
27313;SDS011;14800;48.174;9.798;2022-09-30T14:29:15;6.80;;;6.10;;
27313;SDS011;14800;48.174;9.798;2022-09-30T14:31:24;6.30;;;5.70;;
27313;SDS011;14800;48.174;9.798;2022-09-30T14:33:49;6.40;;;5.80;;
27313;SDS011;14800;48.174;9.798;2022-09-30T14:36:16;6.22;;;5.70;;
27313;SDS011;14800;48.174;9.798;2022-09-30T14:38:46;5.68;;;5.10;;
27313;SDS011;14800;48.174;9.798;2022-09-30T14:41:20;6.50;;;5.90;;
27313;SDS011;14800;48.174;9.798;2022-09-30T14:43:48;7.85;;;6.60;;
27313;SDS011;14800;48.174;9.798;2022-09-30T14:46:26;7.38;;;6.65;;
27313;SDS011;14800;48.174;9.798;2022-09-30T14:48:57;8.10;;;7.30;;
27313;SDS011;14800;48.174;9.798;2022-09-30T14:51:27;7.40;;;6.57;;
27313;SDS011;14800;48.174;9.798;2022-09-30T14:54:13;7.85;;;7.05;;
27313;SDS011;14800;48.174;9.798;2022-09-30T14:56:41;8.07;;;7.15;;
27313;SDS011;14800;48.174;9.798;2022-09-30T14:59:17;9.38;;;8.45;;
27313;SDS011;14800;48.174;9.798;2022-09-30T15:01:45;7.85;;;7.05;;
27313;SDS011;14800;48.174;9.798;2022-09-30T15:04:15;8.25;;;6.90;;
27313;SDS011;14800;48.174;9.798;2022-09-30T15:06:47;7.78;;;6.75;;
27313;SDS011;14800;48.174;9.798;2022-09-30T15:09:16;7.65;;;6.85;;
27313;SDS011;14800;48.174;9.798;2022-09-30T15:11:49;7.20;;;6.50;;
27313;SDS011;14800;48.174;9.798;2022-09-30T15:14:16;8.45;;;7.22;;
27313;SDS011;14800;48.174;9.798;2022-09-30T15:16:51;8.63;;;7.25;;
27313;SDS011;14800;48.174;9.798;2022-09-30T15:19:19;8.70;;;7.80;;
27313;SDS011;14800;48.174;9.798;2022-09-30T15:21:50;8.15;;;7.35;;
27313;SDS011;14800;48.174;9.798;2022-09-30T15:24:18;7.93;;;6.82;;
27313;SDS011;14800;48.174;9.798;2022-09-30T15:26:46;7.78;;;6.97;;
27313;SDS011;14800;48.174;9.798;2022-09-30T15:29:13;9.23;;;6.93;;
27313;SDS011;14800;48.174;9.798;2022-09-30T15:31:42;8.45;;;7.60;;
27313;SDS011;14800;48.174;9.798;2022-09-30T15:34:17;7.78;;;6.97;;
27313;SDS011;14800;48.174;9.798;2022-09-30T15:36:45;8.20;;;6.93;;
27313;SDS011;14800;48.174;9.798;2022-09-30T15:39:22;7.78;;;6.97;;
27313;SDS011;14800;48.174;9.798;2022-09-30T15:42:12;9.48;;;6.75;;
27313;SDS011;14800;48.174;9.798;2022-09-30T15:44:46;8.23;;;7.43;;
27313;SDS011;14800;48.174;9.798;2022-09-30T15:47:12;9.57;;;8.02;;
27313;SDS011;14800;48.174;9.798;2022-09-30T15:52:25;8.95;;;7.95;;
27313;SDS011;14800;48.174;9.798;2022-09-30T15:54:52;10.57;;;8.43;;
27313;SDS011;14800;48.174;9.798;2022-09-30T16:05:41;18.08;;;13.98;;
27313;SDS011;14800;48.174;9.798;2022-09-30T16:08:07;10.52;;;9.15;;
27313;SDS011;14800;48.174;9.798;2022-09-30T16:10:34;8.88;;;7.55;;
27313;SDS011;14800;48.174;9.798;2022-09-30T16:13:01;8.65;;;7.75;;
27313;SDS011;14800;48.174;9.798;2022-09-30T16:15:28;8.50;;;7.63;;
27313;SDS011;14800;48.174;9.798;2022-09-30T16:17:54;10.88;;;7.20;;
27313;SDS011;14800;48.174;9.798;2022-09-30T16:20:22;8.30;;;7.40;;
27313;SDS011;14800;48.174;9.798;2022-09-30T16:22:50;9.18;;;7.95;;
27313;SDS011;14800;48.174;9.798;2022-09-30T16:30:25;7.20;;;6.50;;
27313;SDS011;14800;48.174;9.798;2022-09-30T16:32:52;7.47;;;6.43;;
27313;SDS011;14800;48.174;9.798;2022-09-30T16:35:23;8.02;;;7.18;;
27313;SDS011;14800;48.174;9.798;2022-09-30T16:37:53;8.50;;;7.28;;
27313;SDS011;14800;48.174;9.798;2022-09-30T16:40:26;7.40;;;6.63;;
27313;SDS011;14800;48.174;9.798;2022-09-30T16:42:53;7.80;;;7.00;;
27313;SDS011;14800;48.174;9.798;2022-09-30T16:45:19;8.45;;;7.20;;
27313;SDS011;14800;48.174;9.798;2022-09-30T16:47:46;8.88;;;7.03;;
27313;SDS011;14800;48.174;9.798;2022-09-30T16:50:21;6.97;;;6.28;;
27313;SDS011;14800;48.174;9.798;2022-09-30T16:52:52;7.80;;;7.00;;
27313;SDS011;14800;48.174;9.798;2022-09-30T16:55:17;8.23;;;7.15;;
27313;SDS011;14800;48.174;9.798;2022-09-30T16:57:43;8.35;;;7.45;;
27313;SDS011;14800;48.174;9.798;2022-09-30T17:00:10;7.78;;;6.97;;
27313;SDS011;14800;48.174;9.798;2022-09-30T17:02:39;11.07;;;7.18;;
27313;SDS011;14800;48.174;9.798;2022-09-30T17:05:05;8.32;;;7.30;;
27313;SDS011;14800;48.174;9.798;2022-09-30T17:07:36;8.90;;;7.38;;
27313;SDS011;14800;48.174;9.798;2022-09-30T17:10:01;8.40;;;7.15;;
27313;SDS011;14800;48.174;9.798;2022-09-30T17:12:27;8.05;;;7.22;;
27313;SDS011;14800;48.174;9.798;2022-09-30T17:14:52;8.18;;;7.32;;
27313;SDS011;14800;48.174;9.798;2022-09-30T17:17:20;9.88;;;8.73;;
27313;SDS011;14800;48.174;9.798;2022-09-30T17:19:46;9.32;;;8.02;;
27313;SDS011;14800;48.174;9.798;2022-09-30T17:22:11;10.25;;;8.18;;
27313;SDS011;14800;48.174;9.798;2022-09-30T17:24:37;8.18;;;7.38;;
27313;SDS011;14800;48.174;9.798;2022-09-30T17:27:02;8.25;;;7.25;;
27313;SDS011;14800;48.174;9.798;2022-09-30T17:29:28;9.05;;;7.15;;
27313;SDS011;14800;48.174;9.798;2022-09-30T17:31:55;8.55;;;7.60;;
27313;SDS011;14800;48.174;9.798;2022-09-30T17:34:20;8.52;;;7.38;;
27313;SDS011;14800;48.174;9.798;2022-09-30T17:36:46;8.40;;;7.50;;
27313;SDS011;14800;48.174;9.798;2022-09-30T17:39:12;7.88;;;6.90;;
27313;SDS011;14800;48.174;9.798;2022-09-30T17:41:37;9.20;;;7.13;;
27313;SDS011;14800;48.174;9.798;2022-09-30T17:44:22;9.13;;;7.25;;
27313;SDS011;14800;48.174;9.798;2022-09-30T17:46:48;8.77;;;7.50;;
27313;SDS011;14800;48.174;9.798;2022-09-30T17:49:16;8.57;;;7.63;;
27313;SDS011;14800;48.174;9.798;2022-09-30T17:51:41;9.00;;;7.43;;
27313;SDS011;14800;48.174;9.798;2022-09-30T17:54:07;9.07;;;7.90;;
27313;SDS011;14800;48.174;9.798;2022-09-30T17:56:33;11.82;;;9.02;;
27313;SDS011;14800;48.174;9.798;2022-09-30T17:58:59;12.52;;;9.60;;